sensor_id;sensor_type;location;lat;lon;timestamp;temperature;humidity
17671;DHT22;8954;48.694;8.940;2023-04-24T07:46:17;13.30;99.90
17671;DHT22;8954;48.694;8.940;2023-04-24T07:48:43;13.10;99.90
17671;DHT22;8954;48.694;8.940;2023-04-24T07:51:08;13.10;99.90
17671;DHT22;8954;48.694;8.940;2023-04-24T07:53:36;13.00;99.90
17671;DHT22;8954;48.694;8.940;2023-04-24T07:56:01;13.10;99.90
17671;DHT22;8954;48.694;8.940;2023-04-24T07:58:27;13.00;99.90
17671;DHT22;8954;48.694;8.940;2023-04-24T08:00:52;12.90;99.90
17671;DHT22;8954;48.694;8.940;2023-04-24T08:03:18;13.10;99.90
17671;DHT22;8954;48.694;8.940;2023-04-24T08:05:45;13.20;99.90
17671;DHT22;8954;48.694;8.940;2023-04-24T08:08:10;13.00;99.90
17671;DHT22;8954;48.694;8.940;2023-04-24T08:10:36;13.20;99.90
17671;DHT22;8954;48.694;8.940;2023-04-24T08:13:01;13.60;99.90
17671;DHT22;8954;48.694;8.940;2023-04-24T08:15:28;13.50;99.90
17671;DHT22;8954;48.694;8.940;2023-04-24T08:17:53;13.40;99.90
17671;DHT22;8954;48.694;8.940;2023-04-24T08:20:19;13.50;99.90
17671;DHT22;8954;48.694;8.940;2023-04-24T08:22:44;13.80;99.90
17671;DHT22;8954;48.694;8.940;2023-04-24T08:25:12;13.90;99.90
17671;DHT22;8954;48.694;8.940;2023-04-24T08:27:38;14.30;99.90
17671;DHT22;8954;48.694;8.940;2023-04-24T08:30:05;14.50;99.90
17671;DHT22;8954;48.694;8.940;2023-04-24T08:32:31;14.60;99.90
17671;DHT22;8954;48.694;8.940;2023-04-24T08:34:58;14.70;99.90
17671;DHT22;8954;48.694;8.940;2023-04-24T08:37:27;15.60;99.90
17671;DHT22;8954;48.694;8.940;2023-04-24T08:39:53;15.50;99.90
17671;DHT22;8954;48.694;8.940;2023-04-24T08:42:19;15.20;99.90
17671;DHT22;8954;48.694;8.940;2023-04-24T08:44:45;14.60;99.90
17671;DHT22;8954;48.694;8.940;2023-04-24T08:47:11;14.90;99.90
17671;DHT22;8954;48.694;8.940;2023-04-24T08:49:38;15.90;99.90
17671;DHT22;8954;48.694;8.940;2023-04-24T08:52:04;17.60;99.90
17671;DHT22;8954;48.694;8.940;2023-04-24T08:54:31;18.50;99.20
17671;DHT22;8954;48.694;8.940;2023-04-24T08:56:59;19.00;97.70
17671;DHT22;8954;48.694;8.940;2023-04-24T08:59:29;18.60;96.70
17671;DHT22;8954;48.694;8.940;2023-04-24T09:01:55;19.70;95.00
17671;DHT22;8954;48.694;8.940;2023-04-24T09:04:22;19.70;93.10
17671;DHT22;8954;48.694;8.940;2023-04-24T09:06:56;18.30;93.50
17671;DHT22;8954;48.694;8.940;2023-04-24T09:09:23;17.50;94.70
17671;DHT22;8954;48.694;8.940;2023-04-24T09:11:50;17.40;95.10
17671;DHT22;8954;48.694;8.940;2023-04-24T09:14:17;16.60;94.60
17671;DHT22;8954;48.694;8.940;2023-04-24T09:16:42;16.50;94.40
17671;DHT22;8954;48.694;8.940;2023-04-24T09:19:08;17.90;92.70
17671;DHT22;8954;48.694;8.940;2023-04-24T09:21:34;19.20;88.80
17671;DHT22;8954;48.694;8.940;2023-04-24T09:24:05;20.30;82.50
17671;DHT22;8954;48.694;8.940;2023-04-24T09:26:32;21.60;77.70
17671;DHT22;8954;48.694;8.940;2023-04-24T09:29:00;23.10;72.80
17671;DHT22;8954;48.694;8.940;2023-04-24T09:31:28;23.50;72.80
17671;DHT22;8954;48.694;8.940;2023-04-24T09:36:28;25.70;63.10
17671;DHT22;8954;48.694;8.940;2023-04-24T09:38:58;24.60;64.90
17671;DHT22;8954;48.694;8.940;2023-04-24T09:41:23;23.90;64.70
17671;DHT22;8954;48.694;8.940;2023-04-24T09:43:49;23.90;63.10
17671;DHT22;8954;48.694;8.940;2023-04-24T09:46:18;23.10;63.70
17671;DHT22;8954;48.694;8.940;2023-04-24T09:48:44;23.10;63.10
17671;DHT22;8954;48.694;8.940;2023-04-24T09:51:09;22.80;62.90
17671;DHT22;8954;48.694;8.940;2023-04-24T09:53:38;21.80;65.60
17671;DHT22;8954;48.694;8.940;2023-04-24T09:56:08;22.50;65.10
17671;DHT22;8954;48.694;8.940;2023-04-24T09:58:35;22.10;64.70
17671;DHT22;8954;48.694;8.940;2023-04-24T10:01:02;22.70;65.00
17671;DHT22;8954;48.694;8.940;2023-04-24T10:03:30;24.50;61.20
17671;DHT22;8954;48.694;8.940;2023-04-24T10:06:00;26.00;57.50
17671;DHT22;8954;48.694;8.940;2023-04-24T10:08:26;27.00;56.50
17671;DHT22;8954;48.694;8.940;2023-04-24T10:10:52;27.10;55.60
17671;DHT22;8954;48.694;8.940;2023-04-24T10:13:17;26.60;56.60
17671;DHT22;8954;48.694;8.940;2023-04-24T10:15:43;25.30;56.90
17671;DHT22;8954;48.694;8.940;2023-04-24T10:18:10;24.70;57.90
17671;DHT22;8954;48.694;8.940;2023-04-24T10:20:38;24.20;58.30
17671;DHT22;8954;48.694;8.940;2023-04-24T10:23:05;22.80;60.60
17671;DHT22;8954;48.694;8.940;2023-04-24T10:25:33;20.80;65.00
17671;DHT22;8954;48.694;8.940;2023-04-24T10:28:00;19.00;68.60
17671;DHT22;8954;48.694;8.940;2023-04-24T10:30:35;17.90;71.90
17671;DHT22;8954;48.694;8.940;2023-04-24T10:33:07;18.10;73.20
17671;DHT22;8954;48.694;8.940;2023-04-24T10:35:38;18.50;72.10
17671;DHT22;8954;48.694;8.940;2023-04-24T10:38:15;17.90;74.30
17671;DHT22;8954;48.694;8.940;2023-04-24T10:40:42;16.90;78.10
17671;DHT22;8954;48.694;8.940;2023-04-24T10:43:08;16.90;77.80
17671;DHT22;8954;48.694;8.940;2023-04-24T10:45:37;17.60;76.70
17671;DHT22;8954;48.694;8.940;2023-04-24T10:48:08;17.40;76.80
17671;DHT22;8954;48.694;8.940;2023-04-24T10:50:48;17.10;77.50
17671;DHT22;8954;48.694;8.940;2023-04-24T10:53:21;16.80;78.70
17671;DHT22;8954;48.694;8.940;2023-04-24T10:56:07;16.70;79.20
17671;DHT22;8954;48.694;8.940;2023-04-24T10:58:50;16.40;79.90
17671;DHT22;8954;48.694;8.940;2023-04-24T11:01:25;16.60;81.30
17671;DHT22;8954;48.694;8.940;2023-04-24T11:03:55;16.70;81.20
17671;DHT22;8954;48.694;8.940;2023-04-24T11:09:15;16.80;79.20
17671;DHT22;8954;48.694;8.940;2023-04-24T11:11:45;16.70;80.10
17671;DHT22;8954;48.694;8.940;2023-04-24T11:14:14;16.90;81.50
17671;DHT22;8954;48.694;8.940;2023-04-24T11:16:53;17.30;80.00
17671;DHT22;8954;48.694;8.940;2023-04-24T11:19:24;17.30;78.60
17671;DHT22;8954;48.694;8.940;2023-04-24T11:24:38;16.30;82.50
17671;DHT22;8954;48.694;8.940;2023-04-24T11:29:46;15.20;85.00
17671;DHT22;8954;48.694;8.940;2023-04-24T11:32:41;14.90;86.50
17671;DHT22;8954;48.694;8.940;2023-04-24T11:35:16;14.90;86.50
17671;DHT22;8954;48.694;8.940;2023-04-24T11:37:44;14.70;88.50
17671;DHT22;8954;48.694;8.940;2023-04-24T11:40:17;14.90;87.90
17671;DHT22;8954;48.694;8.940;2023-04-24T11:42:47;16.40;85.90
17671;DHT22;8954;48.694;8.940;2023-04-24T11:45:14;18.40;82.30
17671;DHT22;8954;48.694;8.940;2023-04-24T11:47:40;19.80;75.10
17671;DHT22;8954;48.694;8.940;2023-04-24T11:50:13;20.80;72.90
17671;DHT22;8954;48.694;8.940;2023-04-24T11:52:41;19.70;73.60
17671;DHT22;8954;48.694;8.940;2023-04-24T11:55:22;18.30;76.90
17671;DHT22;8954;48.694;8.940;2023-04-24T11:57:50;17.30;79.50
17671;DHT22;8954;48.694;8.940;2023-04-24T12:00:20;15.20;85.50
17671;DHT22;8954;48.694;8.940;2023-04-24T12:02:46;14.60;86.40
17671;DHT22;8954;48.694;8.940;2023-04-24T12:05:25;14.00;88.10
17671;DHT22;8954;48.694;8.940;2023-04-24T12:07:51;14.10;89.90
17671;DHT22;8954;48.694;8.940;2023-04-24T12:10:24;14.20;89.30
17671;DHT22;8954;48.694;8.940;2023-04-24T12:12:51;14.60;88.80
17671;DHT22;8954;48.694;8.940;2023-04-24T12:15:18;15.30;88.00
17671;DHT22;8954;48.694;8.940;2023-04-24T12:17:44;16.10;85.50
17671;DHT22;8954;48.694;8.940;2023-04-24T12:20:10;16.30;83.10
17671;DHT22;8954;48.694;8.940;2023-04-24T12:22:51;16.50;83.50
17671;DHT22;8954;48.694;8.940;2023-04-24T12:25:20;16.10;84.00
17671;DHT22;8954;48.694;8.940;2023-04-24T12:27:47;15.80;87.90
17671;DHT22;8954;48.694;8.940;2023-04-24T12:30:17;15.60;87.40
17671;DHT22;8954;48.694;8.940;2023-04-24T12:32:47;15.20;88.60
17671;DHT22;8954;48.694;8.940;2023-04-24T12:35:14;15.30;89.10
17671;DHT22;8954;48.694;8.940;2023-04-24T12:37:44;15.20;89.30
17671;DHT22;8954;48.694;8.940;2023-04-24T12:40:11;15.20;89.20
17671;DHT22;8954;48.694;8.940;2023-04-24T12:42:45;15.30;89.40
17671;DHT22;8954;48.694;8.940;2023-04-24T12:45:12;15.20;89.50
17671;DHT22;8954;48.694;8.940;2023-04-24T12:47:39;14.50;90.10
17671;DHT22;8954;48.694;8.940;2023-04-24T12:50:06;14.00;91.40
17671;DHT22;8954;48.694;8.940;2023-04-24T12:52:31;13.00;93.00
17671;DHT22;8954;48.694;8.940;2023-04-24T12:54:59;12.60;94.20
17671;DHT22;8954;48.694;8.940;2023-04-24T12:57:26;12.40;95.10
17671;DHT22;8954;48.694;8.940;2023-04-24T12:59:56;12.70;95.30
17671;DHT22;8954;48.694;8.940;2023-04-24T13:02:23;13.00;95.20
17671;DHT22;8954;48.694;8.940;2023-04-24T13:04:49;12.70;95.20
17671;DHT22;8954;48.694;8.940;2023-04-24T13:07:15;13.00;95.50
17671;DHT22;8954;48.694;8.940;2023-04-24T13:09:42;13.30;94.70
17671;DHT22;8954;48.694;8.940;2023-04-24T13:12:08;13.60;94.30
17671;DHT22;8954;48.694;8.940;2023-04-24T13:14:34;13.70;93.60
17671;DHT22;8954;48.694;8.940;2023-04-24T13:17:00;13.70;93.70
17671;DHT22;8954;48.694;8.940;2023-04-24T13:19:27;13.60;93.50
17671;DHT22;8954;48.694;8.940;2023-04-24T13:21:55;13.60;93.70
17671;DHT22;8954;48.694;8.940;2023-04-24T13:24:21;13.60;93.60
17671;DHT22;8954;48.694;8.940;2023-04-24T13:26:50;13.40;93.90
17671;DHT22;8954;48.694;8.940;2023-04-24T13:29:16;13.30;94.60
17671;DHT22;8954;48.694;8.940;2023-04-24T13:31:41;13.20;95.20
17671;DHT22;8954;48.694;8.940;2023-04-24T13:34:07;12.80;95.30
17671;DHT22;8954;48.694;8.940;2023-04-24T13:36:33;12.70;97.60
17671;DHT22;8954;48.694;8.940;2023-04-24T13:38:58;12.90;99.90
17671;DHT22;8954;48.694;8.940;2023-04-24T13:41:24;13.80;97.80
17671;DHT22;8954;48.694;8.940;2023-04-24T13:43:50;14.80;96.40
17671;DHT22;8954;48.694;8.940;2023-04-24T13:46:16;14.90;94.70
17671;DHT22;8954;48.694;8.940;2023-04-24T13:48:41;14.50;94.10
17671;DHT22;8954;48.694;8.940;2023-04-24T13:51:07;14.20;95.00
17671;DHT22;8954;48.694;8.940;2023-04-24T13:53:32;14.10;95.70
17671;DHT22;8954;48.694;8.940;2023-04-24T13:56:01;13.80;95.70
17671;DHT22;8954;48.694;8.940;2023-04-24T13:58:27;13.40;96.70
17671;DHT22;8954;48.694;8.940;2023-04-24T14:00:53;13.10;97.40
17671;DHT22;8954;48.694;8.940;2023-04-24T14:03:19;12.80;99.40
17671;DHT22;8954;48.694;8.940;2023-04-24T14:05:44;12.30;99.90
17671;DHT22;8954;48.694;8.940;2023-04-24T14:08:10;12.00;99.90
17671;DHT22;8954;48.694;8.940;2023-04-24T14:10:35;11.70;99.90
17671;DHT22;8954;48.694;8.940;2023-04-24T14:13:01;11.60;99.90
17671;DHT22;8954;48.694;8.940;2023-04-24T14:15:27;12.20;99.90
17671;DHT22;8954;48.694;8.940;2023-04-24T14:17:53;13.40;99.90
17671;DHT22;8954;48.694;8.940;2023-04-24T14:20:18;14.70;99.90
17671;DHT22;8954;48.694;8.940;2023-04-24T14:22:45;16.10;99.90
17671;DHT22;8954;48.694;8.940;2023-04-24T14:25:11;16.30;99.90
17671;DHT22;8954;48.694;8.940;2023-04-24T14:27:36;16.40;99.90
17671;DHT22;8954;48.694;8.940;2023-04-24T14:30:02;15.90;99.90
17671;DHT22;8954;48.694;8.940;2023-04-24T14:32:28;15.60;99.90
17671;DHT22;8954;48.694;8.940;2023-04-24T14:34:54;14.90;99.90
17671;DHT22;8954;48.694;8.940;2023-04-24T14:37:20;14.40;99.90
17671;DHT22;8954;48.694;8.940;2023-04-24T14:39:45;14.10;99.90
17671;DHT22;8954;48.694;8.940;2023-04-24T14:42:11;14.20;99.90
17671;DHT22;8954;48.694;8.940;2023-04-24T14:44:37;14.10;99.90
17671;DHT22;8954;48.694;8.940;2023-04-24T14:47:02;14.10;99.90
17671;DHT22;8954;48.694;8.940;2023-04-24T14:49:28;13.80;99.90
17671;DHT22;8954;48.694;8.940;2023-04-24T14:51:53;13.60;99.90
17671;DHT22;8954;48.694;8.940;2023-04-24T14:54:19;13.40;99.90
17671;DHT22;8954;48.694;8.940;2023-04-24T14:56:48;13.20;99.90
17671;DHT22;8954;48.694;8.940;2023-04-24T14:59:14;12.60;99.90
17671;DHT22;8954;48.694;8.940;2023-04-24T15:01:40;12.40;99.90
17671;DHT22;8954;48.694;8.940;2023-04-24T15:04:05;12.30;99.90
17671;DHT22;8954;48.694;8.940;2023-04-24T15:06:31;12.10;99.90
17671;DHT22;8954;48.694;8.940;2023-04-24T15:08:58;11.90;99.90
17671;DHT22;8954;48.694;8.940;2023-04-24T15:11:23;11.90;99.90
17671;DHT22;8954;48.694;8.940;2023-04-24T15:13:49;11.80;99.90
17671;DHT22;8954;48.694;8.940;2023-04-24T15:16:15;11.70;99.90
17671;DHT22;8954;48.694;8.940;2023-04-24T15:18:41;11.70;99.90
17671;DHT22;8954;48.694;8.940;2023-04-24T15:21:06;11.50;99.90
17671;DHT22;8954;48.694;8.940;2023-04-24T15:23:32;11.40;99.90
17671;DHT22;8954;48.694;8.940;2023-04-24T15:25:58;11.50;99.90
17671;DHT22;8954;48.694;8.940;2023-04-24T15:28:24;11.60;99.90
17671;DHT22;8954;48.694;8.940;2023-04-24T15:30:50;11.70;99.90
17671;DHT22;8954;48.694;8.940;2023-04-24T15:33:16;11.80;99.90
17671;DHT22;8954;48.694;8.940;2023-04-24T15:35:41;13.00;99.90
17671;DHT22;8954;48.694;8.940;2023-04-24T15:38:07;14.10;99.90
17671;DHT22;8954;48.694;8.940;2023-04-24T15:40:33;14.10;99.90
17671;DHT22;8954;48.694;8.940;2023-04-24T15:42:59;13.80;99.90
17671;DHT22;8954;48.694;8.940;2023-04-24T15:45:24;13.70;99.90
17671;DHT22;8954;48.694;8.940;2023-04-24T15:47:50;13.70;99.90
17671;DHT22;8954;48.694;8.940;2023-04-24T15:50:16;15.50;99.90
17671;DHT22;8954;48.694;8.940;2023-04-24T15:52:43;18.20;99.50
17671;DHT22;8954;48.694;8.940;2023-04-24T15:55:09;20.60;93.20
17671;DHT22;8954;48.694;8.940;2023-04-24T15:57:35;21.40;86.80
17671;DHT22;8954;48.694;8.940;2023-04-24T16:00:02;20.40;86.70
17671;DHT22;8954;48.694;8.940;2023-04-24T16:02:28;18.50;90.00
17671;DHT22;8954;48.694;8.940;2023-04-24T16:04:54;17.30;92.00
17671;DHT22;8954;48.694;8.940;2023-04-24T16:07:20;16.20;92.50
17671;DHT22;8954;48.694;8.940;2023-04-24T16:09:45;15.50;94.40
17671;DHT22;8954;48.694;8.940;2023-04-24T16:12:11;15.00;95.40
17671;DHT22;8954;48.694;8.940;2023-04-24T16:14:37;14.70;96.70
17671;DHT22;8954;48.694;8.940;2023-04-24T16:17:03;14.60;96.60
17671;DHT22;8954;48.694;8.940;2023-04-24T16:19:29;14.10;96.40
17671;DHT22;8954;48.694;8.940;2023-04-24T16:21:55;14.00;97.20
17671;DHT22;8954;48.694;8.940;2023-04-24T16:24:22;13.90;97.60
17671;DHT22;8954;48.694;8.940;2023-04-24T16:26:49;13.90;96.90
17671;DHT22;8954;48.694;8.940;2023-04-24T16:29:15;13.70;97.50
17671;DHT22;8954;48.694;8.940;2023-04-24T16:31:41;13.40;98.20
17671;DHT22;8954;48.694;8.940;2023-04-24T16:34:06;12.80;98.40
17671;DHT22;8954;48.694;8.940;2023-04-24T16:36:32;12.80;98.80
17671;DHT22;8954;48.694;8.940;2023-04-24T16:38:57;12.60;99.10
17671;DHT22;8954;48.694;8.940;2023-04-24T16:41:25;12.50;99.60
17671;DHT22;8954;48.694;8.940;2023-04-24T16:43:51;12.60;99.90
17671;DHT22;8954;48.694;8.940;2023-04-24T16:46:18;14.70;98.90
17671;DHT22;8954;48.694;8.940;2023-04-24T16:48:43;16.80;94.60
17671;DHT22;8954;48.694;8.940;2023-04-24T16:51:09;18.50;91.30
17671;DHT22;8954;48.694;8.940;2023-04-24T16:53:35;19.40;86.90
17671;DHT22;8954;48.694;8.940;2023-04-24T16:56:03;20.20;84.80
17671;DHT22;8954;48.694;8.940;2023-04-24T16:58:29;20.30;82.40
17671;DHT22;8954;48.694;8.940;2023-04-24T17:00:56;20.00;79.90
17671;DHT22;8954;48.694;8.940;2023-04-24T17:03:21;19.40;82.00
17671;DHT22;8954;48.694;8.940;2023-04-24T17:05:47;19.10;82.20
17671;DHT22;8954;48.694;8.940;2023-04-24T17:08:13;19.10;84.10
17671;DHT22;8954;48.694;8.940;2023-04-24T17:10:39;19.00;82.40
17671;DHT22;8954;48.694;8.940;2023-04-24T17:13:05;19.10;82.10
17671;DHT22;8954;48.694;8.940;2023-04-24T17:15:31;19.30;81.80
17671;DHT22;8954;48.694;8.940;2023-04-24T17:17:57;19.10;81.90
17671;DHT22;8954;48.694;8.940;2023-04-24T17:20:22;18.60;83.00
17671;DHT22;8954;48.694;8.940;2023-04-24T17:22:48;18.50;84.30
17671;DHT22;8954;48.694;8.940;2023-04-24T17:25:14;17.60;85.70
17671;DHT22;8954;48.694;8.940;2023-04-24T17:27:39;16.90;87.50
17671;DHT22;8954;48.694;8.940;2023-04-24T17:30:06;16.00;89.70
17671;DHT22;8954;48.694;8.940;2023-04-24T17:32:33;14.80;91.50
17671;DHT22;8954;48.694;8.940;2023-04-24T17:34:58;13.90;92.90
17671;DHT22;8954;48.694;8.940;2023-04-24T17:37:24;13.30;94.50
17671;DHT22;8954;48.694;8.940;2023-04-24T17:39:49;12.70;95.80
17671;DHT22;8954;48.694;8.940;2023-04-24T17:42:16;12.40;97.00
17671;DHT22;8954;48.694;8.940;2023-04-24T17:44:41;12.00;98.20
17671;DHT22;8954;48.694;8.940;2023-04-24T17:47:07;11.60;98.50
17671;DHT22;8954;48.694;8.940;2023-04-24T17:49:32;11.30;99.50
17671;DHT22;8954;48.694;8.940;2023-04-24T17:51:58;11.10;99.90
17671;DHT22;8954;48.694;8.940;2023-04-24T17:54:24;10.90;99.90
17671;DHT22;8954;48.694;8.940;2023-04-24T17:56:49;10.90;99.90
17671;DHT22;8954;48.694;8.940;2023-04-24T17:59:18;10.80;99.90
17671;DHT22;8954;48.694;8.940;2023-04-24T18:01:43;10.90;99.90
17671;DHT22;8954;48.694;8.940;2023-04-24T18:04:09;10.80;99.90
17671;DHT22;8954;48.694;8.940;2023-04-24T18:06:35;10.70;99.90
17671;DHT22;8954;48.694;8.940;2023-04-24T18:09:01;10.60;99.90
17671;DHT22;8954;48.694;8.940;2023-04-24T18:11:28;10.50;99.90
17671;DHT22;8954;48.694;8.940;2023-04-24T18:13:54;10.40;99.90
17671;DHT22;8954;48.694;8.940;2023-04-24T18:16:19;10.30;99.90
17671;DHT22;8954;48.694;8.940;2023-04-24T18:18:45;10.20;99.90
17671;DHT22;8954;48.694;8.940;2023-04-24T18:21:11;10.10;99.90
17671;DHT22;8954;48.694;8.940;2023-04-24T18:23:37;10.10;99.90
17671;DHT22;8954;48.694;8.940;2023-04-24T18:26:02;10.10;99.90
17671;DHT22;8954;48.694;8.940;2023-04-24T18:28:28;10.10;99.90
17671;DHT22;8954;48.694;8.940;2023-04-24T18:30:56;10.10;99.90
17671;DHT22;8954;48.694;8.940;2023-04-24T18:33:22;10.10;99.90
17671;DHT22;8954;48.694;8.940;2023-04-24T18:35:48;10.00;99.90
17671;DHT22;8954;48.694;8.940;2023-04-24T18:38:13;10.00;99.90
17671;DHT22;8954;48.694;8.940;2023-04-24T18:40:39;9.90;99.90
17671;DHT22;8954;48.694;8.940;2023-04-24T18:43:05;9.90;99.90
17671;DHT22;8954;48.694;8.940;2023-04-24T18:45:30;9.80;99.90
17671;DHT22;8954;48.694;8.940;2023-04-24T18:47:56;9.70;99.90
17671;DHT22;8954;48.694;8.940;2023-04-24T18:50:21;9.70;99.90
17671;DHT22;8954;48.694;8.940;2023-04-24T18:52:47;9.60;99.90
17671;DHT22;8954;48.694;8.940;2023-04-24T18:55:13;9.50;99.90
17671;DHT22;8954;48.694;8.940;2023-04-24T18:57:39;9.40;99.90
17671;DHT22;8954;48.694;8.940;2023-04-24T19:00:05;9.30;99.90
17671;DHT22;8954;48.694;8.940;2023-04-24T19:02:32;9.20;99.90
17671;DHT22;8954;48.694;8.940;2023-04-24T19:04:58;9.10;99.90
17671;DHT22;8954;48.694;8.940;2023-04-24T19:07:23;9.00;99.90
17671;DHT22;8954;48.694;8.940;2023-04-24T19:09:49;8.90;99.90
17671;DHT22;8954;48.694;8.940;2023-04-24T19:12:15;8.70;99.90
17671;DHT22;8954;48.694;8.940;2023-04-24T19:14:40;8.60;99.90
17671;DHT22;8954;48.694;8.940;2023-04-24T19:17:08;8.60;99.90
17671;DHT22;8954;48.694;8.940;2023-04-24T19:19:36;8.50;99.90
17671;DHT22;8954;48.694;8.940;2023-04-24T19:22:02;8.50;99.90
17671;DHT22;8954;48.694;8.940;2023-04-24T19:24:29;8.30;99.90
17671;DHT22;8954;48.694;8.940;2023-04-24T19:26:57;8.30;99.90
17671;DHT22;8954;48.694;8.940;2023-04-24T19:29:23;8.30;99.90
17671;DHT22;8954;48.694;8.940;2023-04-24T19:31:48;8.30;99.90
17671;DHT22;8954;48.694;8.940;2023-04-24T19:34:14;8.30;99.90
17671;DHT22;8954;48.694;8.940;2023-04-24T19:36:39;8.20;99.90
17671;DHT22;8954;48.694;8.940;2023-04-24T19:39:05;8.10;99.90
17671;DHT22;8954;48.694;8.940;2023-04-24T19:41:30;8.00;99.90
17671;DHT22;8954;48.694;8.940;2023-04-24T19:43:56;7.90;99.90
17671;DHT22;8954;48.694;8.940;2023-04-24T19:46:21;7.80;99.90
17671;DHT22;8954;48.694;8.940;2023-04-24T19:48:47;7.80;99.90
17671;DHT22;8954;48.694;8.940;2023-04-24T19:51:13;7.70;99.90
17671;DHT22;8954;48.694;8.940;2023-04-24T19:53:38;7.40;99.90
17671;DHT22;8954;48.694;8.940;2023-04-24T19:56:05;7.30;99.90
17671;DHT22;8954;48.694;8.940;2023-04-24T19:58:31;7.20;99.90
17671;DHT22;8954;48.694;8.940;2023-04-24T20:00:57;7.20;99.90
17671;DHT22;8954;48.694;8.940;2023-04-24T20:03:23;7.20;99.90
17671;DHT22;8954;48.694;8.940;2023-04-24T20:05:48;7.10;99.90
17671;DHT22;8954;48.694;8.940;2023-04-24T20:08:17;7.00;99.90
17671;DHT22;8954;48.694;8.940;2023-04-24T20:10:42;7.00;99.90
17671;DHT22;8954;48.694;8.940;2023-04-24T20:13:10;7.10;99.90
17671;DHT22;8954;48.694;8.940;2023-04-24T20:15:35;7.10;99.90
17671;DHT22;8954;48.694;8.940;2023-04-24T20:18:01;7.10;99.90
17671;DHT22;8954;48.694;8.940;2023-04-24T20:20:27;7.10;99.90
17671;DHT22;8954;48.694;8.940;2023-04-24T20:22:52;7.20;99.90
17671;DHT22;8954;48.694;8.940;2023-04-24T20:25:18;7.20;99.90
17671;DHT22;8954;48.694;8.940;2023-04-24T20:27:44;7.10;99.90
17671;DHT22;8954;48.694;8.940;2023-04-24T20:30:10;7.20;99.90
17671;DHT22;8954;48.694;8.940;2023-04-24T20:32:41;7.20;99.90
17671;DHT22;8954;48.694;8.940;2023-04-24T20:35:10;7.30;99.90
17671;DHT22;8954;48.694;8.940;2023-04-24T20:37:36;7.30;99.90
17671;DHT22;8954;48.694;8.940;2023-04-24T20:40:02;7.30;99.90
17671;DHT22;8954;48.694;8.940;2023-04-24T20:42:32;7.30;99.90
17671;DHT22;8954;48.694;8.940;2023-04-24T20:44:59;7.40;99.90
17671;DHT22;8954;48.694;8.940;2023-04-24T20:47:25;7.40;99.90
17671;DHT22;8954;48.694;8.940;2023-04-24T20:49:51;7.40;99.90
17671;DHT22;8954;48.694;8.940;2023-04-24T20:52:16;7.50;99.90
17671;DHT22;8954;48.694;8.940;2023-04-24T20:54:42;7.60;99.90
17671;DHT22;8954;48.694;8.940;2023-04-24T20:57:08;7.50;99.90
17671;DHT22;8954;48.694;8.940;2023-04-24T20:59:34;7.60;99.90
17671;DHT22;8954;48.694;8.940;2023-04-24T21:02:00;7.60;99.90
17671;DHT22;8954;48.694;8.940;2023-04-24T21:04:25;7.60;99.90
17671;DHT22;8954;48.694;8.940;2023-04-24T21:06:51;7.60;99.90
17671;DHT22;8954;48.694;8.940;2023-04-24T21:09:16;7.60;99.90
17671;DHT22;8954;48.694;8.940;2023-04-24T21:11:42;7.60;99.90
17671;DHT22;8954;48.694;8.940;2023-04-24T21:14:08;7.70;99.90
17671;DHT22;8954;48.694;8.940;2023-04-24T21:16:35;7.70;99.90
17671;DHT22;8954;48.694;8.940;2023-04-24T21:19:00;7.70;99.90
17671;DHT22;8954;48.694;8.940;2023-04-24T21:21:26;7.70;99.90
17671;DHT22;8954;48.694;8.940;2023-04-24T21:23:51;7.70;99.90
17671;DHT22;8954;48.694;8.940;2023-04-24T21:26:17;7.70;99.90
17671;DHT22;8954;48.694;8.940;2023-04-24T21:28:43;7.80;99.90
17671;DHT22;8954;48.694;8.940;2023-04-24T21:31:09;7.80;99.90
17671;DHT22;8954;48.694;8.940;2023-04-24T21:33:34;7.80;99.90
17671;DHT22;8954;48.694;8.940;2023-04-24T21:36:00;7.80;99.90
17671;DHT22;8954;48.694;8.940;2023-04-24T21:38:25;8.00;99.90
17671;DHT22;8954;48.694;8.940;2023-04-24T21:40:51;8.00;99.90
17671;DHT22;8954;48.694;8.940;2023-04-24T21:43:20;8.00;99.90
17671;DHT22;8954;48.694;8.940;2023-04-24T21:45:45;8.10;99.90
17671;DHT22;8954;48.694;8.940;2023-04-24T21:48:11;8.10;99.90
17671;DHT22;8954;48.694;8.940;2023-04-24T21:50:37;8.10;99.90
17671;DHT22;8954;48.694;8.940;2023-04-24T21:53:02;8.00;99.90
17671;DHT22;8954;48.694;8.940;2023-04-24T21:55:28;8.00;99.90
17671;DHT22;8954;48.694;8.940;2023-04-24T21:57:54;8.00;99.90
17671;DHT22;8954;48.694;8.940;2023-04-24T22:00:19;7.90;99.90
17671;DHT22;8954;48.694;8.940;2023-04-24T22:02:45;7.90;99.90
17671;DHT22;8954;48.694;8.940;2023-04-24T22:05:11;7.90;99.90
17671;DHT22;8954;48.694;8.940;2023-04-24T22:07:41;8.00;99.90
17671;DHT22;8954;48.694;8.940;2023-04-24T22:10:09;8.10;99.90
17671;DHT22;8954;48.694;8.940;2023-04-24T22:12:35;8.20;99.90
17671;DHT22;8954;48.694;8.940;2023-04-24T22:15:01;8.40;99.90
17671;DHT22;8954;48.694;8.940;2023-04-24T22:17:26;8.40;99.90
17671;DHT22;8954;48.694;8.940;2023-04-24T22:19:52;8.40;99.90
17671;DHT22;8954;48.694;8.940;2023-04-24T22:22:17;8.50;99.90
17671;DHT22;8954;48.694;8.940;2023-04-24T22:24:43;8.50;99.90
17671;DHT22;8954;48.694;8.940;2023-04-24T22:27:08;8.40;99.90
17671;DHT22;8954;48.694;8.940;2023-04-24T22:29:34;8.40;99.90
17671;DHT22;8954;48.694;8.940;2023-04-24T22:32:00;8.50;99.90
17671;DHT22;8954;48.694;8.940;2023-04-24T22:34:25;8.50;99.90
17671;DHT22;8954;48.694;8.940;2023-04-24T22:36:51;8.50;99.90
17671;DHT22;8954;48.694;8.940;2023-04-24T22:39:17;8.50;99.90
17671;DHT22;8954;48.694;8.940;2023-04-24T22:41:43;8.40;99.90
17671;DHT22;8954;48.694;8.940;2023-04-24T22:44:09;8.30;99.90
17671;DHT22;8954;48.694;8.940;2023-04-24T22:46:35;8.20;99.90
17671;DHT22;8954;48.694;8.940;2023-04-24T22:49:00;8.20;99.90
17671;DHT22;8954;48.694;8.940;2023-04-24T22:51:26;8.10;99.90
17671;DHT22;8954;48.694;8.940;2023-04-24T22:53:53;8.10;99.90
17671;DHT22;8954;48.694;8.940;2023-04-24T22:56:19;8.30;99.90
17671;DHT22;8954;48.694;8.940;2023-04-24T22:58:45;8.30;99.90
17671;DHT22;8954;48.694;8.940;2023-04-24T23:01:11;8.30;99.90
17671;DHT22;8954;48.694;8.940;2023-04-24T23:03:36;8.20;99.90
17671;DHT22;8954;48.694;8.940;2023-04-24T23:06:02;8.10;99.90
17671;DHT22;8954;48.694;8.940;2023-04-24T23:08:28;8.00;99.90
17671;DHT22;8954;48.694;8.940;2023-04-24T23:10:55;8.00;99.90
17671;DHT22;8954;48.694;8.940;2023-04-24T23:13:20;8.00;99.90
17671;DHT22;8954;48.694;8.940;2023-04-24T23:15:46;8.00;99.90
17671;DHT22;8954;48.694;8.940;2023-04-24T23:18:11;8.10;99.90
17671;DHT22;8954;48.694;8.940;2023-04-24T23:20:38;8.10;99.90
17671;DHT22;8954;48.694;8.940;2023-04-24T23:23:04;8.10;99.90
17671;DHT22;8954;48.694;8.940;2023-04-24T23:25:29;8.00;99.90
17671;DHT22;8954;48.694;8.940;2023-04-24T23:27:57;8.00;99.90
17671;DHT22;8954;48.694;8.940;2023-04-24T23:30:22;7.90;99.90
17671;DHT22;8954;48.694;8.940;2023-04-24T23:32:48;7.90;99.90
17671;DHT22;8954;48.694;8.940;2023-04-24T23:35:13;8.10;99.90
17671;DHT22;8954;48.694;8.940;2023-04-24T23:37:39;8.10;99.90
17671;DHT22;8954;48.694;8.940;2023-04-24T23:40:06;8.20;99.90
17671;DHT22;8954;48.694;8.940;2023-04-24T23:42:34;8.20;99.90
17671;DHT22;8954;48.694;8.940;2023-04-24T23:45:00;8.10;99.90